עמוד ראשי
METAR-TAF:

METAR-TAF

שדות תעופה :

ריו ברנקו, אקרי, ברזיל

קו רוחב: 10-00S, קו אורך: 067-48W, גובה: 142מטר

תצפית מזג אוויר נוכחית

הדו"ח נערך לפני 18דקות, בשעה 03:00 UTC
רוח 2קשר מכיוון צפון-מערב
טמפרטורת 24 צלסיוס
לחות 94%
לחץ 1012 hPa
ראות 10 קילומטר או יותר
ללא עננים שבסיסם נמוך מ 5000 רגל או קומולונימבוס

METAR: SBRB 140300Z 31002KT CAVOK 24/23 Q1012

זמן: 22:18 (03:18 UTC)

תחזית

הדו"ח נערך לפני 6 שעות ו 38דקות, בשעה 20:40 UTC
תחזית בתוקף מ 14 ב 00 UTC עד 14 ב 12 UTC
רוח 5קשר מכיוון צפון/צפון-מזרח
ראות 10 קילומטר או יותר
עננים פזורים בגובה 3500רגל
יעשה מ
14 ב 02 UTC עד 14 ב 04 UTC
רוח 5קשר מכיוון צפון-מערב
ראות 10 קילומטר או יותר
ללא עננים שבסיסם נמוך מ 5000 רגל או קומולונימבוס
יעשה מ
14 ב 09 UTC עד 14 ב 11 UTC
רוח 5קשר מכיוון צפון

TAF: SBRB 132040Z 1400/1412 02005KT 9999 SCT035 TN22/1409Z TX27/1412Z BECMG 1402/1404 32005KT CAVOK BECMG 1409/1411 35005KT RMK PGB

תצפיות ותחזיות מזג אוויר לגבי יותר מ- 4,000 שדות תעופה ברחבי העולם. דוחות METAR ו- TAF.

התחנות הזמינות מסומנות בנקודות צהובות ואדומות על גבי המפה.

העבר את העכבר לנקודה הצבעונית על מנת לראות את שם התחנה.

לאחר מכן, לחץ כדי לראות את תוכן ואת תחזיות מזג האוויר.

כדי לשנות את המפה: לחץ על הכפתורים הירוקים עם הפלוס השחור כדי להתקרב; על הכפתור הירוק עם המקף כדי להתרחק; או בחיצים הירוקים למפות סמוכות.


METAR-TAF: